sensor_id;sensor_type;location;lat;lon;timestamp;P1;durP1;ratioP1;P2;durP2;ratioP2
8895;SDS011;4484;48.928;10.066;2024-02-28T00:00:26;29.60;;;17.33;;
8895;SDS011;4484;48.928;10.066;2024-02-28T00:02:53;31.30;;;16.60;;
8895;SDS011;4484;48.928;10.066;2024-02-28T00:05:20;29.63;;;17.57;;
8895;SDS011;4484;48.928;10.066;2024-02-28T00:07:46;29.77;;;17.03;;
8895;SDS011;4484;48.928;10.066;2024-02-28T00:10:13;27.40;;;16.27;;
8895;SDS011;4484;48.928;10.066;2024-02-28T00:12:40;30.07;;;16.23;;
8895;SDS011;4484;48.928;10.066;2024-02-28T00:15:07;29.10;;;17.40;;
8895;SDS011;4484;48.928;10.066;2024-02-28T00:17:38;34.47;;;19.27;;
8895;SDS011;4484;48.928;10.066;2024-02-28T00:20:08;29.67;;;17.47;;
8895;SDS011;4484;48.928;10.066;2024-02-28T00:22:36;25.63;;;15.13;;
8895;SDS011;4484;48.928;10.066;2024-02-28T00:25:03;28.33;;;16.33;;
8895;SDS011;4484;48.928;10.066;2024-02-28T00:27:32;29.90;;;16.43;;
8895;SDS011;4484;48.928;10.066;2024-02-28T00:30:01;28.37;;;16.33;;
8895;SDS011;4484;48.928;10.066;2024-02-28T00:32:27;25.13;;;15.53;;
8895;SDS011;4484;48.928;10.066;2024-02-28T00:34:54;26.27;;;15.90;;
8895;SDS011;4484;48.928;10.066;2024-02-28T00:37:21;26.40;;;16.03;;
8895;SDS011;4484;48.928;10.066;2024-02-28T00:39:49;29.50;;;17.00;;
8895;SDS011;4484;48.928;10.066;2024-02-28T00:42:16;25.70;;;16.43;;
8895;SDS011;4484;48.928;10.066;2024-02-28T00:44:43;23.63;;;14.83;;
8895;SDS011;4484;48.928;10.066;2024-02-28T00:47:10;24.37;;;15.33;;
8895;SDS011;4484;48.928;10.066;2024-02-28T00:49:37;24.90;;;15.33;;
8895;SDS011;4484;48.928;10.066;2024-02-28T00:52:04;26.67;;;14.87;;
8895;SDS011;4484;48.928;10.066;2024-02-28T00:54:31;26.27;;;15.43;;
8895;SDS011;4484;48.928;10.066;2024-02-28T00:56:58;30.07;;;16.07;;
8895;SDS011;4484;48.928;10.066;2024-02-28T00:59:26;30.00;;;16.77;;
8895;SDS011;4484;48.928;10.066;2024-02-28T01:01:53;29.67;;;16.57;;
8895;SDS011;4484;48.928;10.066;2024-02-28T01:04:19;27.70;;;15.50;;
8895;SDS011;4484;48.928;10.066;2024-02-28T01:06:46;25.93;;;14.97;;
8895;SDS011;4484;48.928;10.066;2024-02-28T01:09:13;22.17;;;13.40;;
8895;SDS011;4484;48.928;10.066;2024-02-28T01:11:40;28.60;;;15.30;;
8895;SDS011;4484;48.928;10.066;2024-02-28T01:14:07;27.87;;;15.17;;
8895;SDS011;4484;48.928;10.066;2024-02-28T01:16:34;26.07;;;15.10;;
8895;SDS011;4484;48.928;10.066;2024-02-28T01:19:00;29.83;;;15.77;;
8895;SDS011;4484;48.928;10.066;2024-02-28T01:21:27;25.83;;;15.73;;
8895;SDS011;4484;48.928;10.066;2024-02-28T01:23:54;34.33;;;18.03;;
8895;SDS011;4484;48.928;10.066;2024-02-28T01:26:21;22.67;;;13.40;;
8895;SDS011;4484;48.928;10.066;2024-02-28T01:28:48;26.20;;;14.87;;
8895;SDS011;4484;48.928;10.066;2024-02-28T01:31:16;23.13;;;14.57;;
8895;SDS011;4484;48.928;10.066;2024-02-28T01:33:42;26.47;;;15.57;;
8895;SDS011;4484;48.928;10.066;2024-02-28T01:36:10;27.30;;;15.60;;
8895;SDS011;4484;48.928;10.066;2024-02-28T01:38:37;27.67;;;17.77;;
8895;SDS011;4484;48.928;10.066;2024-02-28T01:41:04;25.93;;;16.07;;
8895;SDS011;4484;48.928;10.066;2024-02-28T01:43:31;28.20;;;16.70;;
8895;SDS011;4484;48.928;10.066;2024-02-28T01:45:59;19.13;;;13.30;;
8895;SDS011;4484;48.928;10.066;2024-02-28T01:48:28;20.70;;;13.13;;
8895;SDS011;4484;48.928;10.066;2024-02-28T01:50:56;19.93;;;12.37;;
8895;SDS011;4484;48.928;10.066;2024-02-28T01:53:23;20.93;;;12.93;;
8895;SDS011;4484;48.928;10.066;2024-02-28T01:55:50;21.13;;;11.87;;
8895;SDS011;4484;48.928;10.066;2024-02-28T01:58:18;22.03;;;13.10;;
8895;SDS011;4484;48.928;10.066;2024-02-28T02:00:45;23.50;;;13.83;;
8895;SDS011;4484;48.928;10.066;2024-02-28T02:03:14;22.80;;;14.07;;
8895;SDS011;4484;48.928;10.066;2024-02-28T02:05:43;24.87;;;14.10;;
8895;SDS011;4484;48.928;10.066;2024-02-28T02:08:18;25.27;;;15.03;;
8895;SDS011;4484;48.928;10.066;2024-02-28T02:10:48;23.00;;;13.90;;
8895;SDS011;4484;48.928;10.066;2024-02-28T02:13:15;23.53;;;14.93;;
8895;SDS011;4484;48.928;10.066;2024-02-28T02:15:42;28.63;;;17.40;;
8895;SDS011;4484;48.928;10.066;2024-02-28T02:18:09;33.90;;;18.93;;
8895;SDS011;4484;48.928;10.066;2024-02-28T02:20:37;25.77;;;16.30;;
8895;SDS011;4484;48.928;10.066;2024-02-28T02:23:06;25.57;;;16.20;;
8895;SDS011;4484;48.928;10.066;2024-02-28T02:25:33;27.43;;;17.13;;
8895;SDS011;4484;48.928;10.066;2024-02-28T02:28:00;29.10;;;15.87;;
8895;SDS011;4484;48.928;10.066;2024-02-28T02:30:26;21.70;;;13.67;;
8895;SDS011;4484;48.928;10.066;2024-02-28T02:32:53;22.87;;;13.70;;
8895;SDS011;4484;48.928;10.066;2024-02-28T02:35:20;23.07;;;14.57;;
8895;SDS011;4484;48.928;10.066;2024-02-28T02:37:47;26.17;;;15.20;;
8895;SDS011;4484;48.928;10.066;2024-02-28T02:40:15;27.53;;;15.23;;
8895;SDS011;4484;48.928;10.066;2024-02-28T02:42:42;24.37;;;13.97;;
8895;SDS011;4484;48.928;10.066;2024-02-28T02:45:09;29.20;;;16.37;;
8895;SDS011;4484;48.928;10.066;2024-02-28T02:47:35;25.77;;;15.30;;
8895;SDS011;4484;48.928;10.066;2024-02-28T02:50:03;28.60;;;16.37;;
8895;SDS011;4484;48.928;10.066;2024-02-28T02:52:30;28.00;;;16.33;;
8895;SDS011;4484;48.928;10.066;2024-02-28T02:54:57;27.03;;;15.90;;
8895;SDS011;4484;48.928;10.066;2024-02-28T02:57:24;23.93;;;14.40;;
8895;SDS011;4484;48.928;10.066;2024-02-28T02:59:50;23.43;;;14.47;;
8895;SDS011;4484;48.928;10.066;2024-02-28T03:02:17;22.33;;;13.07;;
8895;SDS011;4484;48.928;10.066;2024-02-28T03:04:44;21.77;;;13.23;;
8895;SDS011;4484;48.928;10.066;2024-02-28T03:07:11;27.77;;;15.90;;
8895;SDS011;4484;48.928;10.066;2024-02-28T03:09:38;26.67;;;14.50;;
8895;SDS011;4484;48.928;10.066;2024-02-28T03:12:04;21.80;;;13.50;;
8895;SDS011;4484;48.928;10.066;2024-02-28T03:14:32;20.47;;;13.13;;
8895;SDS011;4484;48.928;10.066;2024-02-28T03:16:58;20.67;;;12.77;;
8895;SDS011;4484;48.928;10.066;2024-02-28T03:19:25;22.83;;;14.20;;
8895;SDS011;4484;48.928;10.066;2024-02-28T03:21:52;24.40;;;15.20;;
8895;SDS011;4484;48.928;10.066;2024-02-28T03:24:19;23.00;;;14.27;;
8895;SDS011;4484;48.928;10.066;2024-02-28T03:26:46;22.60;;;14.00;;
8895;SDS011;4484;48.928;10.066;2024-02-28T03:29:13;23.73;;;14.07;;
8895;SDS011;4484;48.928;10.066;2024-02-28T03:31:40;24.27;;;14.37;;
8895;SDS011;4484;48.928;10.066;2024-02-28T03:34:07;31.60;;;17.90;;
8895;SDS011;4484;48.928;10.066;2024-02-28T03:36:34;30.67;;;18.00;;
8895;SDS011;4484;48.928;10.066;2024-02-28T03:39:01;27.20;;;15.33;;
8895;SDS011;4484;48.928;10.066;2024-02-28T03:41:28;21.87;;;14.33;;
8895;SDS011;4484;48.928;10.066;2024-02-28T03:43:55;26.17;;;14.93;;
8895;SDS011;4484;48.928;10.066;2024-02-28T03:46:22;23.47;;;14.57;;
8895;SDS011;4484;48.928;10.066;2024-02-28T03:48:49;27.23;;;15.23;;
8895;SDS011;4484;48.928;10.066;2024-02-28T03:51:16;27.50;;;15.03;;
8895;SDS011;4484;48.928;10.066;2024-02-28T03:53:43;20.47;;;13.27;;
8895;SDS011;4484;48.928;10.066;2024-02-28T03:56:10;24.47;;;14.03;;
8895;SDS011;4484;48.928;10.066;2024-02-28T03:58:39;21.77;;;14.37;;
8895;SDS011;4484;48.928;10.066;2024-02-28T04:01:06;26.53;;;14.57;;
8895;SDS011;4484;48.928;10.066;2024-02-28T04:03:33;25.63;;;15.57;;
8895;SDS011;4484;48.928;10.066;2024-02-28T04:06:00;30.50;;;16.67;;
8895;SDS011;4484;48.928;10.066;2024-02-28T04:08:27;31.30;;;17.40;;
8895;SDS011;4484;48.928;10.066;2024-02-28T04:10:53;34.30;;;18.93;;
8895;SDS011;4484;48.928;10.066;2024-02-28T04:13:20;34.23;;;20.27;;
8895;SDS011;4484;48.928;10.066;2024-02-28T04:15:47;32.03;;;17.93;;
8895;SDS011;4484;48.928;10.066;2024-02-28T04:18:14;33.43;;;18.83;;
8895;SDS011;4484;48.928;10.066;2024-02-28T04:20:41;31.73;;;18.33;;
8895;SDS011;4484;48.928;10.066;2024-02-28T04:23:07;30.40;;;16.47;;
8895;SDS011;4484;48.928;10.066;2024-02-28T04:25:34;38.20;;;20.53;;
8895;SDS011;4484;48.928;10.066;2024-02-28T04:28:02;34.37;;;18.70;;
8895;SDS011;4484;48.928;10.066;2024-02-28T04:30:29;32.17;;;18.63;;
8895;SDS011;4484;48.928;10.066;2024-02-28T04:32:56;31.77;;;17.87;;
8895;SDS011;4484;48.928;10.066;2024-02-28T04:35:23;36.50;;;19.90;;
8895;SDS011;4484;48.928;10.066;2024-02-28T04:37:50;38.37;;;19.30;;
8895;SDS011;4484;48.928;10.066;2024-02-28T04:40:16;34.93;;;19.00;;
8895;SDS011;4484;48.928;10.066;2024-02-28T04:42:43;34.13;;;18.50;;
8895;SDS011;4484;48.928;10.066;2024-02-28T04:45:10;36.23;;;19.23;;
8895;SDS011;4484;48.928;10.066;2024-02-28T04:47:37;34.77;;;19.47;;
8895;SDS011;4484;48.928;10.066;2024-02-28T04:50:10;40.73;;;20.80;;
8895;SDS011;4484;48.928;10.066;2024-02-28T04:52:37;36.93;;;20.43;;
8895;SDS011;4484;48.928;10.066;2024-02-28T04:55:04;35.20;;;21.00;;
8895;SDS011;4484;48.928;10.066;2024-02-28T04:57:32;38.80;;;20.30;;
8895;SDS011;4484;48.928;10.066;2024-02-28T04:59:59;40.57;;;21.10;;
8895;SDS011;4484;48.928;10.066;2024-02-28T05:02:26;39.80;;;22.53;;
8895;SDS011;4484;48.928;10.066;2024-02-28T05:04:53;46.53;;;24.23;;
8895;SDS011;4484;48.928;10.066;2024-02-28T05:07:19;39.70;;;20.60;;
8895;SDS011;4484;48.928;10.066;2024-02-28T05:09:46;42.93;;;23.23;;
8895;SDS011;4484;48.928;10.066;2024-02-28T05:12:13;42.67;;;21.50;;
8895;SDS011;4484;48.928;10.066;2024-02-28T05:14:40;40.47;;;20.90;;
8895;SDS011;4484;48.928;10.066;2024-02-28T05:17:07;44.40;;;22.90;;
8895;SDS011;4484;48.928;10.066;2024-02-28T05:19:34;44.17;;;22.60;;
8895;SDS011;4484;48.928;10.066;2024-02-28T05:22:01;46.33;;;23.60;;
8895;SDS011;4484;48.928;10.066;2024-02-28T05:24:28;44.73;;;23.47;;
8895;SDS011;4484;48.928;10.066;2024-02-28T05:26:55;48.87;;;24.47;;
8895;SDS011;4484;48.928;10.066;2024-02-28T05:29:22;46.10;;;22.47;;
8895;SDS011;4484;48.928;10.066;2024-02-28T05:31:49;44.87;;;22.67;;
8895;SDS011;4484;48.928;10.066;2024-02-28T05:34:15;39.90;;;20.13;;
8895;SDS011;4484;48.928;10.066;2024-02-28T05:36:42;47.70;;;22.77;;
8895;SDS011;4484;48.928;10.066;2024-02-28T05:39:10;46.10;;;21.57;;
8895;SDS011;4484;48.928;10.066;2024-02-28T05:41:36;39.67;;;20.87;;
8895;SDS011;4484;48.928;10.066;2024-02-28T05:44:03;41.43;;;20.40;;
8895;SDS011;4484;48.928;10.066;2024-02-28T05:46:30;45.87;;;22.30;;
8895;SDS011;4484;48.928;10.066;2024-02-28T05:48:57;39.20;;;21.23;;
8895;SDS011;4484;48.928;10.066;2024-02-28T05:51:24;42.07;;;21.53;;
8895;SDS011;4484;48.928;10.066;2024-02-28T05:53:51;39.77;;;19.97;;
8895;SDS011;4484;48.928;10.066;2024-02-28T05:56:18;39.57;;;19.83;;
8895;SDS011;4484;48.928;10.066;2024-02-28T05:58:46;37.17;;;19.37;;
8895;SDS011;4484;48.928;10.066;2024-02-28T06:01:17;37.63;;;19.67;;
8895;SDS011;4484;48.928;10.066;2024-02-28T06:03:45;33.77;;;18.70;;
8895;SDS011;4484;48.928;10.066;2024-02-28T06:06:13;40.13;;;18.97;;
8895;SDS011;4484;48.928;10.066;2024-02-28T06:08:41;36.93;;;19.67;;
8895;SDS011;4484;48.928;10.066;2024-02-28T06:11:09;41.03;;;20.47;;
8895;SDS011;4484;48.928;10.066;2024-02-28T06:13:36;42.27;;;21.93;;
8895;SDS011;4484;48.928;10.066;2024-02-28T06:16:03;43.40;;;20.67;;
8895;SDS011;4484;48.928;10.066;2024-02-28T06:18:30;40.87;;;22.60;;
8895;SDS011;4484;48.928;10.066;2024-02-28T06:21:00;31.93;;;18.23;;
8895;SDS011;4484;48.928;10.066;2024-02-28T06:23:27;32.97;;;18.03;;
8895;SDS011;4484;48.928;10.066;2024-02-28T06:25:56;39.10;;;18.10;;
8895;SDS011;4484;48.928;10.066;2024-02-28T06:28:23;35.50;;;17.97;;
8895;SDS011;4484;48.928;10.066;2024-02-28T06:30:51;39.80;;;19.33;;
8895;SDS011;4484;48.928;10.066;2024-02-28T06:33:18;34.03;;;17.80;;
8895;SDS011;4484;48.928;10.066;2024-02-28T06:35:45;34.07;;;19.03;;
8895;SDS011;4484;48.928;10.066;2024-02-28T06:38:12;37.37;;;20.00;;
8895;SDS011;4484;48.928;10.066;2024-02-28T06:40:39;40.60;;;19.83;;
8895;SDS011;4484;48.928;10.066;2024-02-28T06:43:07;36.17;;;18.53;;
8895;SDS011;4484;48.928;10.066;2024-02-28T06:45:34;31.77;;;16.90;;
8895;SDS011;4484;48.928;10.066;2024-02-28T06:48:03;28.33;;;15.67;;
8895;SDS011;4484;48.928;10.066;2024-02-28T06:50:31;29.00;;;16.30;;
8895;SDS011;4484;48.928;10.066;2024-02-28T06:52:58;24.97;;;14.13;;
8895;SDS011;4484;48.928;10.066;2024-02-28T06:55:24;42.53;;;20.47;;
8895;SDS011;4484;48.928;10.066;2024-02-28T06:57:51;31.67;;;16.60;;
8895;SDS011;4484;48.928;10.066;2024-02-28T07:00:18;34.50;;;17.13;;
8895;SDS011;4484;48.928;10.066;2024-02-28T07:02:46;40.63;;;19.50;;
8895;SDS011;4484;48.928;10.066;2024-02-28T07:05:12;31.17;;;17.37;;
8895;SDS011;4484;48.928;10.066;2024-02-28T07:07:39;31.30;;;17.93;;
8895;SDS011;4484;48.928;10.066;2024-02-28T07:10:06;32.23;;;16.13;;
8895;SDS011;4484;48.928;10.066;2024-02-28T07:12:33;26.83;;;15.40;;
8895;SDS011;4484;48.928;10.066;2024-02-28T07:15:00;26.43;;;14.73;;
8895;SDS011;4484;48.928;10.066;2024-02-28T07:17:27;24.10;;;14.00;;
8895;SDS011;4484;48.928;10.066;2024-02-28T07:19:54;30.00;;;16.27;;
8895;SDS011;4484;48.928;10.066;2024-02-28T07:22:21;33.70;;;17.53;;
8895;SDS011;4484;48.928;10.066;2024-02-28T07:24:48;35.37;;;18.97;;
8895;SDS011;4484;48.928;10.066;2024-02-28T07:27:15;33.83;;;17.70;;
8895;SDS011;4484;48.928;10.066;2024-02-28T07:29:45;35.20;;;19.50;;
8895;SDS011;4484;48.928;10.066;2024-02-28T07:32:12;33.20;;;17.60;;
8895;SDS011;4484;48.928;10.066;2024-02-28T07:34:39;33.90;;;18.43;;
8895;SDS011;4484;48.928;10.066;2024-02-28T07:37:06;31.80;;;17.33;;
8895;SDS011;4484;48.928;10.066;2024-02-28T07:39:33;27.57;;;15.83;;
8895;SDS011;4484;48.928;10.066;2024-02-28T07:42:00;35.30;;;17.77;;
8895;SDS011;4484;48.928;10.066;2024-02-28T07:44:27;32.93;;;18.10;;
8895;SDS011;4484;48.928;10.066;2024-02-28T07:46:57;31.60;;;16.90;;
8895;SDS011;4484;48.928;10.066;2024-02-28T07:49:25;33.67;;;17.13;;
8895;SDS011;4484;48.928;10.066;2024-02-28T07:51:54;30.90;;;16.97;;
8895;SDS011;4484;48.928;10.066;2024-02-28T07:54:21;31.90;;;16.83;;
8895;SDS011;4484;48.928;10.066;2024-02-28T07:56:48;28.33;;;16.10;;
8895;SDS011;4484;48.928;10.066;2024-02-28T07:59:15;28.90;;;16.27;;
8895;SDS011;4484;48.928;10.066;2024-02-28T08:01:42;34.97;;;17.87;;
8895;SDS011;4484;48.928;10.066;2024-02-28T08:04:09;29.00;;;15.93;;
8895;SDS011;4484;48.928;10.066;2024-02-28T08:06:36;31.17;;;16.57;;
8895;SDS011;4484;48.928;10.066;2024-02-28T08:09:03;38.03;;;18.00;;
8895;SDS011;4484;48.928;10.066;2024-02-28T08:11:30;32.80;;;17.27;;
8895;SDS011;4484;48.928;10.066;2024-02-28T08:13:57;31.90;;;17.27;;
8895;SDS011;4484;48.928;10.066;2024-02-28T08:16:25;33.07;;;18.30;;
8895;SDS011;4484;48.928;10.066;2024-02-28T08:18:55;38.83;;;17.87;;
8895;SDS011;4484;48.928;10.066;2024-02-28T08:21:22;35.57;;;18.40;;
8895;SDS011;4484;48.928;10.066;2024-02-28T08:23:49;40.10;;;19.80;;
8895;SDS011;4484;48.928;10.066;2024-02-28T08:26:15;36.77;;;18.10;;
8895;SDS011;4484;48.928;10.066;2024-02-28T08:28:42;31.57;;;16.57;;
8895;SDS011;4484;48.928;10.066;2024-02-28T08:31:09;34.27;;;18.03;;
8895;SDS011;4484;48.928;10.066;2024-02-28T08:33:36;34.53;;;18.13;;
8895;SDS011;4484;48.928;10.066;2024-02-28T08:36:03;34.83;;;18.70;;
8895;SDS011;4484;48.928;10.066;2024-02-28T08:38:30;37.90;;;19.83;;
8895;SDS011;4484;48.928;10.066;2024-02-28T08:40:57;32.33;;;17.17;;
8895;SDS011;4484;48.928;10.066;2024-02-28T08:43:24;41.13;;;19.80;;
8895;SDS011;4484;48.928;10.066;2024-02-28T08:45:51;35.87;;;18.40;;
8895;SDS011;4484;48.928;10.066;2024-02-28T08:48:18;39.63;;;18.43;;
8895;SDS011;4484;48.928;10.066;2024-02-28T08:50:45;35.50;;;17.93;;
8895;SDS011;4484;48.928;10.066;2024-02-28T08:53:12;34.47;;;17.53;;
8895;SDS011;4484;48.928;10.066;2024-02-28T08:55:38;43.50;;;19.40;;
8895;SDS011;4484;48.928;10.066;2024-02-28T08:58:05;34.47;;;17.43;;
8895;SDS011;4484;48.928;10.066;2024-02-28T09:00:32;35.87;;;17.37;;
8895;SDS011;4484;48.928;10.066;2024-02-28T09:02:59;35.63;;;17.03;;
8895;SDS011;4484;48.928;10.066;2024-02-28T09:05:26;30.13;;;16.07;;
8895;SDS011;4484;48.928;10.066;2024-02-28T09:07:53;34.23;;;16.40;;
8895;SDS011;4484;48.928;10.066;2024-02-28T09:10:21;31.77;;;16.27;;
8895;SDS011;4484;48.928;10.066;2024-02-28T09:12:51;35.17;;;17.80;;
8895;SDS011;4484;48.928;10.066;2024-02-28T09:15:18;33.97;;;17.00;;
8895;SDS011;4484;48.928;10.066;2024-02-28T09:17:46;32.40;;;16.73;;
8895;SDS011;4484;48.928;10.066;2024-02-28T09:20:13;32.33;;;16.67;;
8895;SDS011;4484;48.928;10.066;2024-02-28T09:22:41;30.70;;;15.13;;
8895;SDS011;4484;48.928;10.066;2024-02-28T09:25:08;27.63;;;15.17;;
8895;SDS011;4484;48.928;10.066;2024-02-28T09:27:36;29.67;;;15.47;;
8895;SDS011;4484;48.928;10.066;2024-02-28T09:30:03;26.00;;;14.37;;
8895;SDS011;4484;48.928;10.066;2024-02-28T09:32:31;24.53;;;13.93;;
8895;SDS011;4484;48.928;10.066;2024-02-28T09:34:58;26.30;;;15.00;;
8895;SDS011;4484;48.928;10.066;2024-02-28T09:37:25;26.93;;;15.57;;
8895;SDS011;4484;48.928;10.066;2024-02-28T09:39:52;31.07;;;16.87;;
8895;SDS011;4484;48.928;10.066;2024-02-28T09:42:19;27.23;;;14.47;;
8895;SDS011;4484;48.928;10.066;2024-02-28T09:44:47;26.50;;;15.57;;
8895;SDS011;4484;48.928;10.066;2024-02-28T09:47:14;28.33;;;15.57;;
8895;SDS011;4484;48.928;10.066;2024-02-28T09:49:41;26.97;;;15.50;;
8895;SDS011;4484;48.928;10.066;2024-02-28T09:52:09;26.63;;;15.80;;
8895;SDS011;4484;48.928;10.066;2024-02-28T09:54:36;30.90;;;18.03;;
8895;SDS011;4484;48.928;10.066;2024-02-28T09:57:03;29.90;;;17.97;;
8895;SDS011;4484;48.928;10.066;2024-02-28T09:59:31;31.83;;;18.20;;
8895;SDS011;4484;48.928;10.066;2024-02-28T10:02:17;31.30;;;17.87;;
8895;SDS011;4484;48.928;10.066;2024-02-28T10:04:46;31.27;;;18.77;;
8895;SDS011;4484;48.928;10.066;2024-02-28T10:07:13;28.33;;;16.97;;
8895;SDS011;4484;48.928;10.066;2024-02-28T10:09:41;27.97;;;16.23;;
8895;SDS011;4484;48.928;10.066;2024-02-28T10:12:08;27.80;;;16.80;;
8895;SDS011;4484;48.928;10.066;2024-02-28T10:14:35;25.43;;;14.97;;
8895;SDS011;4484;48.928;10.066;2024-02-28T10:17:03;25.87;;;15.27;;
8895;SDS011;4484;48.928;10.066;2024-02-28T10:19:30;24.07;;;15.07;;
8895;SDS011;4484;48.928;10.066;2024-02-28T10:21:57;23.53;;;14.93;;
8895;SDS011;4484;48.928;10.066;2024-02-28T10:24:25;23.67;;;14.37;;
8895;SDS011;4484;48.928;10.066;2024-02-28T10:26:52;21.07;;;13.03;;
8895;SDS011;4484;48.928;10.066;2024-02-28T10:29:23;24.00;;;14.77;;
8895;SDS011;4484;48.928;10.066;2024-02-28T10:31:57;22.20;;;13.80;;
8895;SDS011;4484;48.928;10.066;2024-02-28T10:34:24;26.63;;;15.57;;
8895;SDS011;4484;48.928;10.066;2024-02-28T10:36:51;25.17;;;14.27;;
8895;SDS011;4484;48.928;10.066;2024-02-28T10:39:19;22.40;;;13.57;;
8895;SDS011;4484;48.928;10.066;2024-02-28T10:41:47;27.03;;;15.70;;
8895;SDS011;4484;48.928;10.066;2024-02-28T10:44:16;24.93;;;15.50;;
8895;SDS011;4484;48.928;10.066;2024-02-28T10:46:44;25.33;;;16.00;;
8895;SDS011;4484;48.928;10.066;2024-02-28T10:49:14;26.93;;;16.27;;
8895;SDS011;4484;48.928;10.066;2024-02-28T10:51:41;24.93;;;15.33;;
8895;SDS011;4484;48.928;10.066;2024-02-28T10:54:12;25.63;;;14.97;;
8895;SDS011;4484;48.928;10.066;2024-02-28T10:56:41;23.10;;;14.47;;
8895;SDS011;4484;48.928;10.066;2024-02-28T10:59:10;23.83;;;14.73;;
8895;SDS011;4484;48.928;10.066;2024-02-28T11:01:39;24.60;;;15.60;;
8895;SDS011;4484;48.928;10.066;2024-02-28T11:04:09;25.50;;;16.00;;
8895;SDS011;4484;48.928;10.066;2024-02-28T11:06:47;22.73;;;13.73;;
8895;SDS011;4484;48.928;10.066;2024-02-28T11:09:23;24.80;;;16.53;;
8895;SDS011;4484;48.928;10.066;2024-02-28T11:11:54;22.40;;;13.70;;
8895;SDS011;4484;48.928;10.066;2024-02-28T11:14:22;23.83;;;14.33;;
8895;SDS011;4484;48.928;10.066;2024-02-28T11:17:01;23.60;;;14.43;;
8895;SDS011;4484;48.928;10.066;2024-02-28T11:19:30;24.13;;;14.93;;
8895;SDS011;4484;48.928;10.066;2024-02-28T11:21:59;21.67;;;13.67;;
8895;SDS011;4484;48.928;10.066;2024-02-28T11:24:31;20.13;;;13.10;;
8895;SDS011;4484;48.928;10.066;2024-02-28T11:27:00;26.23;;;15.30;;
8895;SDS011;4484;48.928;10.066;2024-02-28T11:29:29;20.20;;;12.83;;
8895;SDS011;4484;48.928;10.066;2024-02-28T11:31:56;22.93;;;13.90;;
8895;SDS011;4484;48.928;10.066;2024-02-28T11:34:24;18.73;;;11.93;;
8895;SDS011;4484;48.928;10.066;2024-02-28T11:36:51;21.80;;;13.87;;
8895;SDS011;4484;48.928;10.066;2024-02-28T11:39:19;19.60;;;13.37;;
8895;SDS011;4484;48.928;10.066;2024-02-28T11:41:47;19.40;;;13.83;;
8895;SDS011;4484;48.928;10.066;2024-02-28T11:44:16;17.83;;;12.00;;
8895;SDS011;4484;48.928;10.066;2024-02-28T11:46:47;19.43;;;12.50;;
8895;SDS011;4484;48.928;10.066;2024-02-28T11:49:15;18.30;;;11.77;;
8895;SDS011;4484;48.928;10.066;2024-02-28T11:51:43;16.67;;;11.13;;
8895;SDS011;4484;48.928;10.066;2024-02-28T11:54:10;19.73;;;12.60;;
8895;SDS011;4484;48.928;10.066;2024-02-28T11:56:40;18.23;;;11.70;;
8895;SDS011;4484;48.928;10.066;2024-02-28T11:59:08;16.50;;;11.83;;
8895;SDS011;4484;48.928;10.066;2024-02-28T12:01:38;17.20;;;11.07;;
8895;SDS011;4484;48.928;10.066;2024-02-28T12:04:08;18.60;;;11.57;;
8895;SDS011;4484;48.928;10.066;2024-02-28T12:06:35;19.73;;;13.23;;
8895;SDS011;4484;48.928;10.066;2024-02-28T12:09:12;18.23;;;11.67;;
8895;SDS011;4484;48.928;10.066;2024-02-28T12:11:53;17.70;;;11.60;;
8895;SDS011;4484;48.928;10.066;2024-02-28T12:14:20;19.57;;;12.27;;
8895;SDS011;4484;48.928;10.066;2024-02-28T12:16:47;18.87;;;12.57;;
8895;SDS011;4484;48.928;10.066;2024-02-28T12:19:15;17.60;;;11.30;;
8895;SDS011;4484;48.928;10.066;2024-02-28T12:21:45;16.83;;;11.53;;
8895;SDS011;4484;48.928;10.066;2024-02-28T12:24:12;16.17;;;10.87;;
8895;SDS011;4484;48.928;10.066;2024-02-28T12:26:39;17.77;;;11.57;;
8895;SDS011;4484;48.928;10.066;2024-02-28T12:29:07;18.20;;;11.87;;
8895;SDS011;4484;48.928;10.066;2024-02-28T12:31:37;15.93;;;10.33;;
8895;SDS011;4484;48.928;10.066;2024-02-28T12:34:04;18.03;;;11.80;;
8895;SDS011;4484;48.928;10.066;2024-02-28T12:36:31;17.30;;;11.17;;
8895;SDS011;4484;48.928;10.066;2024-02-28T12:38:59;19.87;;;13.10;;
8895;SDS011;4484;48.928;10.066;2024-02-28T12:41:26;15.93;;;11.23;;
8895;SDS011;4484;48.928;10.066;2024-02-28T12:43:54;16.97;;;10.50;;
8895;SDS011;4484;48.928;10.066;2024-02-28T12:46:21;17.70;;;10.93;;
8895;SDS011;4484;48.928;10.066;2024-02-28T12:48:47;18.53;;;11.03;;
8895;SDS011;4484;48.928;10.066;2024-02-28T12:51:35;16.40;;;10.93;;
8895;SDS011;4484;48.928;10.066;2024-02-28T12:54:04;15.37;;;10.40;;
8895;SDS011;4484;48.928;10.066;2024-02-28T12:56:31;14.80;;;9.90;;
8895;SDS011;4484;48.928;10.066;2024-02-28T12:59:01;15.13;;;10.67;;
8895;SDS011;4484;48.928;10.066;2024-02-28T13:01:28;13.87;;;10.37;;
8895;SDS011;4484;48.928;10.066;2024-02-28T13:03:56;19.03;;;12.63;;
8895;SDS011;4484;48.928;10.066;2024-02-28T13:06:23;18.17;;;11.90;;
8895;SDS011;4484;48.928;10.066;2024-02-28T13:08:50;18.37;;;11.67;;
8895;SDS011;4484;48.928;10.066;2024-02-28T13:11:23;19.33;;;12.17;;
8895;SDS011;4484;48.928;10.066;2024-02-28T13:13:51;18.50;;;11.90;;
8895;SDS011;4484;48.928;10.066;2024-02-28T13:16:19;19.33;;;12.37;;
8895;SDS011;4484;48.928;10.066;2024-02-28T13:18:46;17.60;;;11.10;;
8895;SDS011;4484;48.928;10.066;2024-02-28T13:21:13;18.73;;;11.30;;
8895;SDS011;4484;48.928;10.066;2024-02-28T13:23:40;24.23;;;15.07;;
8895;SDS011;4484;48.928;10.066;2024-02-28T13:26:07;19.50;;;12.03;;
8895;SDS011;4484;48.928;10.066;2024-02-28T13:28:34;21.60;;;12.67;;
8895;SDS011;4484;48.928;10.066;2024-02-28T13:31:02;19.93;;;12.43;;
8895;SDS011;4484;48.928;10.066;2024-02-28T13:33:32;22.10;;;12.33;;
8895;SDS011;4484;48.928;10.066;2024-02-28T13:35:59;21.07;;;12.53;;
8895;SDS011;4484;48.928;10.066;2024-02-28T13:38:26;26.60;;;13.73;;
8895;SDS011;4484;48.928;10.066;2024-02-28T13:40:53;22.13;;;12.17;;
8895;SDS011;4484;48.928;10.066;2024-02-28T13:43:20;18.50;;;11.30;;
8895;SDS011;4484;48.928;10.066;2024-02-28T13:45:47;20.77;;;11.60;;
8895;SDS011;4484;48.928;10.066;2024-02-28T13:48:19;22.50;;;12.73;;
8895;SDS011;4484;48.928;10.066;2024-02-28T13:50:54;20.97;;;12.27;;
8895;SDS011;4484;48.928;10.066;2024-02-28T13:53:21;18.20;;;11.30;;
8895;SDS011;4484;48.928;10.066;2024-02-28T13:55:48;17.60;;;10.90;;
8895;SDS011;4484;48.928;10.066;2024-02-28T13:58:15;20.47;;;11.93;;
8895;SDS011;4484;48.928;10.066;2024-02-28T14:00:44;16.37;;;9.93;;
8895;SDS011;4484;48.928;10.066;2024-02-28T14:03:13;15.27;;;10.17;;
8895;SDS011;4484;48.928;10.066;2024-02-28T14:05:41;16.23;;;9.67;;
8895;SDS011;4484;48.928;10.066;2024-02-28T14:08:08;15.33;;;10.20;;
8895;SDS011;4484;48.928;10.066;2024-02-28T14:10:36;16.23;;;9.73;;
8895;SDS011;4484;48.928;10.066;2024-02-28T14:13:03;15.53;;;9.50;;
8895;SDS011;4484;48.928;10.066;2024-02-28T14:15:30;17.13;;;10.07;;
8895;SDS011;4484;48.928;10.066;2024-02-28T14:17:57;13.13;;;8.37;;
8895;SDS011;4484;48.928;10.066;2024-02-28T14:20:24;18.13;;;11.03;;
8895;SDS011;4484;48.928;10.066;2024-02-28T14:22:51;13.70;;;9.03;;
8895;SDS011;4484;48.928;10.066;2024-02-28T14:25:18;14.47;;;9.10;;
8895;SDS011;4484;48.928;10.066;2024-02-28T14:27:47;13.33;;;8.83;;
8895;SDS011;4484;48.928;10.066;2024-02-28T14:30:15;14.33;;;9.37;;
8895;SDS011;4484;48.928;10.066;2024-02-28T14:32:42;14.53;;;9.07;;
8895;SDS011;4484;48.928;10.066;2024-02-28T14:35:10;14.97;;;9.30;;
8895;SDS011;4484;48.928;10.066;2024-02-28T14:37:38;15.43;;;9.67;;